Time;durP1;ratioP1;P1;durP2;ratioP2;P2;SDS_P1;SDS_P2;PMS_P1;PMS_P2;Temp;Humidity;BMP_temperature;BMP_pressure;BME280_temperature;BME280_humidity;BME280_pressure;Samples;Min_cycle;Max_cycle;Signal;HPM_P1;HPM_P2
2021/07/25 00:01:18;;;;;;;29.07;25.93;;;;;;;18.82;78.08;98658.89;124878;1093;64315;-83
2021/07/25 00:03:45;;;;;;;29.20;26.27;;;;;;;18.77;77.96;98658.53;124870;1093;64271;-83
2021/07/25 00:06:16;;;;;;;27.93;25.03;;;;;;;18.71;78.44;98665.40;124934;1093;64306;-83
2021/07/25 00:08:43;;;;;;;27.77;23.67;;;;;;;18.67;78.79;98666.75;124879;1093;64268;-83
2021/07/25 00:11:13;;;;;;;27.10;24.27;;;;;;;18.61;79.03;98667.38;124900;1092;64273;-83
2021/07/25 00:13:41;;;;;;;26.67;23.83;;;;;;;18.56;78.76;98658.92;124874;1093;64241;-83
2021/07/25 00:16:09;;;;;;;26.97;23.87;;;;;;;18.51;79.27;98658.56;124869;1093;64354;-82
2021/07/25 00:18:36;;;;;;;27.43;24.53;;;;;;;18.48;79.80;98656.19;124912;1093;64355;-82
2021/07/25 00:21:03;;;;;;;26.40;23.80;;;;;;;18.49;79.74;98652.50;124866;1093;64281;-83
2021/07/25 00:23:30;;;;;;;26.87;23.90;;;;;;;18.48;80.13;98659.72;124844;1093;64336;-83
2021/07/25 00:25:57;;;;;;;27.07;24.37;;;;;;;18.44;80.15;98647.58;124890;1093;64265;-83
2021/07/25 00:28:32;;;;;;;26.93;24.03;;;;;;;18.46;80.09;98650.09;124860;1093;64307;-83
2021/07/25 00:31:04;;;;;;;27.00;24.17;;;;;;;18.50;80.58;98646.08;124868;1093;64265;-83
2021/07/25 00:33:32;;;;;;;26.40;23.50;;;;;;;18.46;80.61;98645.57;124719;1093;64361;-83
2021/07/25 00:36:00;;;;;;;25.47;22.80;;;;;;;18.46;80.73;98644.70;124876;1093;64387;-83
2021/07/25 00:38:28;;;;;;;23.57;21.33;;;;;;;18.48;80.77;98640.00;124945;1093;64383;-82
2021/07/25 00:40:58;;;;;;;25.17;22.67;;;;;;;18.48;80.61;98640.00;124863;1093;64291;-83
2021/07/25 00:43:27;;;;;;;25.75;23.10;;;;;;;18.46;80.84;98632.08;124948;1093;64335;-83
2021/07/25 00:45:55;;;;;;;29.47;23.10;;;;;;;18.47;80.74;98627.52;124936;1093;64211;-83
2021/07/25 00:48:26;;;;;;;24.23;21.77;;;;;;;18.47;80.71;98622.13;124926;1093;64280;-83
2021/07/25 00:50:54;;;;;;;23.37;20.87;;;;;;;18.50;81.14;98625.33;124920;1092;64210;-83
2021/07/25 00:53:23;;;;;;;22.27;19.93;;;;;;;18.56;80.68;98623.83;124875;1093;64453;-83
2021/07/25 00:55:51;;;;;;;23.03;18.93;;;;;;;18.63;80.85;98623.02;124933;1093;64271;-83
2021/07/25 00:58:18;;;;;;;22.27;19.87;;;;;;;18.68;80.60;98624.41;124930;1093;64280;-83
2021/07/25 01:00:47;;;;;;;21.87;19.77;;;;;;;18.70;80.57;98619.69;124849;1093;64267;-83
2021/07/25 01:03:33;;;;;;;22.43;20.33;;;;;;;18.74;80.65;98619.17;124850;1093;64271;-83
2021/07/25 01:06:14;;;;;;;22.30;20.10;;;;;;;18.78;80.97;98614.34;124814;1092;64421;-83
2021/07/25 01:08:47;;;;;;;21.33;19.23;;;;;;;18.80;80.79;98615.88;124898;1093;64305;-83
2021/07/25 01:11:15;;;;;;;23.03;20.50;;;;;;;18.84;80.72;98614.52;124824;1093;64322;-83
2021/07/25 01:13:50;;;;;;;21.87;19.57;;;;;;;18.83;80.89;98602.04;124917;1093;64309;-83
2021/07/25 01:16:20;;;;;;;21.97;19.97;;;;;;;18.85;80.49;98596.45;124874;1093;64361;-83
2021/07/25 01:18:49;;;;;;;23.20;20.70;;;;;;;18.82;80.91;98603.03;124864;1093;64280;-82
2021/07/25 01:21:19;;;;;;;25.33;22.70;;;;;;;18.82;81.11;98599.49;124885;1093;64220;-83
2021/07/25 01:23:48;;;;;;;24.30;21.80;;;;;;;18.80;80.80;98604.20;124921;1093;64290;-83
2021/07/25 01:26:27;;;;;;;24.23;21.87;;;;;;;18.78;80.92;98612.48;124980;1093;64319;-83
2021/07/25 01:28:57;;;;;;;23.27;20.87;;;;;;;18.77;81.21;98612.64;124953;1093;64267;-83
2021/07/25 01:31:30;;;;;;;24.27;21.87;;;;;;;18.75;81.54;98611.98;124889;1093;64281;-83
2021/07/25 01:33:59;;;;;;;22.67;20.50;;;;;;;18.75;81.33;98604.72;124941;1093;64255;-83
2021/07/25 01:36:28;;;;;;;22.63;20.33;;;;;;;18.77;81.71;98615.34;125023;1093;64185;-83
2021/07/25 01:38:55;;;;;;;22.00;19.87;;;;;;;18.86;81.73;98607.11;124897;1092;64185;-83
2021/07/25 01:41:23;;;;;;;22.47;20.27;;;;;;;18.93;81.49;98609.13;124955;1093;64295;-83
2021/07/25 01:43:52;;;;;;;22.83;20.57;;;;;;;19.00;81.54;98615.58;124933;1093;64267;-83
2021/07/25 01:46:19;;;;;;;22.97;20.63;;;;;;;19.06;81.18;98615.77;124963;1093;64271;-83
2021/07/25 01:48:46;;;;;;;22.90;20.60;;;;;;;19.05;80.96;98614.06;124876;1093;64322;-83
2021/07/25 01:51:15;;;;;;;22.73;20.43;;;;;;;19.08;81.01;98612.88;124834;1093;64284;-83
2021/07/25 01:53:43;;;;;;;21.33;18.60;;;;;;;19.05;81.02;98616.76;124878;1093;64300;-83
2021/07/25 01:56:10;;;;;;;21.77;17.70;;;;;;;19.03;80.95;98613.38;124853;1093;64402;-83
2021/07/25 01:58:37;;;;;;;20.43;18.43;;;;;;;19.02;80.64;98621.66;124870;1093;64293;-83
2021/07/25 02:01:05;;;;;;;20.30;18.17;;;;;;;19.04;80.81;98622.34;124853;1093;64284;-83
2021/07/25 02:03:33;;;;;;;18.80;17.00;;;;;;;19.03;80.75;98626.04;124931;1092;64267;-83
2021/07/25 02:06:02;;;;;;;20.53;18.47;;;;;;;19.03;80.86;98621.48;124916;1093;64265;-83
2021/07/25 02:08:29;;;;;;;20.40;18.47;;;;;;;19.05;80.43;98619.45;124856;1093;64265;-83
2021/07/25 02:10:56;;;;;;;20.43;18.33;;;;;;;19.04;80.34;98619.64;124873;1093;64320;-83
2021/07/25 02:13:24;;;;;;;18.50;16.57;;;;;;;19.04;80.56;98608.84;124895;1093;64363;-83
2021/07/25 02:15:52;;;;;;;18.55;16.55;;;;;;;19.02;80.22;98600.05;124872;1093;64267;-83
2021/07/25 02:18:20;;;;;;;18.93;17.07;;;;;;;19.04;80.27;98601.58;124876;1093;64280;-83
2021/07/25 02:20:48;;;;;;;19.60;17.70;;;;;;;19.07;80.32;98597.70;124903;1092;64284;-83
2021/07/25 02:23:16;;;;;;;20.50;18.40;;;;;;;19.04;79.96;98593.48;124864;1093;64268;-83
2021/07/25 02:25:43;;;;;;;20.97;19.07;;;;;;;19.00;80.27;98591.27;124863;1093;64252;-83
2021/07/25 02:28:11;;;;;;;20.47;18.37;;;;;;;18.94;80.49;98590.08;124883;1093;64207;-83
2021/07/25 02:30:38;;;;;;;22.20;18.50;;;;;;;18.88;80.57;98595.28;124856;1093;64265;-83
2021/07/25 02:33:05;;;;;;;20.85;18.70;;;;;;;18.82;81.02;98603.03;124877;1093;64855;-83
2021/07/25 02:35:33;;;;;;;20.73;18.37;;;;;;;18.79;80.94;98608.77;124876;1093;64293;-83
2021/07/25 02:38:00;;;;;;;20.55;18.45;;;;;;;18.75;81.03;98595.78;124863;1093;64277;-83
2021/07/25 02:40:28;;;;;;;21.17;18.90;;;;;;;18.73;80.95;98600.46;124860;1093;64268;-83
2021/07/25 02:42:55;;;;;;;19.60;17.63;;;;;;;18.71;81.57;98607.88;124893;1093;64329;-83
2021/07/25 02:45:22;;;;;;;21.90;18.35;;;;;;;18.69;81.97;98609.88;124886;1093;64399;-83
2021/07/25 02:47:49;;;;;;;21.10;19.10;;;;;;;18.66;81.48;98597.56;124898;1093;64373;-83
2021/07/25 02:50:17;;;;;;;21.13;19.03;;;;;;;18.65;81.73;98602.12;124852;1093;64274;-83
2021/07/25 02:52:44;;;;;;;19.93;17.93;;;;;;;18.64;81.66;98600.44;124895;1093;64284;-83
2021/07/25 02:55:11;;;;;;;21.80;19.60;;;;;;;18.63;81.88;98603.29;124839;1092;64245;-83
2021/07/25 02:57:39;;;;;;;21.77;19.73;;;;;;;18.59;81.55;98599.25;124839;1093;64185;-83
2021/07/25 03:00:07;;;;;;;21.87;19.53;;;;;;;18.55;81.73;98604.10;124877;1093;64338;-83
2021/07/25 03:02:36;;;;;;;22.90;20.10;;;;;;;18.53;81.70;98600.72;124926;1093;64377;-83
2021/07/25 03:05:07;;;;;;;20.20;18.10;;;;;;;18.50;82.23;98598.34;124895;1093;64268;-83
2021/07/25 03:07:34;;;;;;;21.80;19.47;;;;;;;18.51;82.22;98604.58;124909;1093;64280;-83
2021/07/25 03:10:01;;;;;;;21.13;17.80;;;;;;;18.50;81.79;98592.95;124850;1093;64297;-83
2021/07/25 03:12:28;;;;;;;21.13;19.03;;;;;;;18.53;81.99;98602.58;124844;1093;64331;-83
2021/07/25 03:14:55;;;;;;;20.57;18.40;;;;;;;18.56;81.78;98603.11;124853;1093;64290;-83
2021/07/25 03:17:23;;;;;;;19.30;17.37;;;;;;;18.59;81.86;98608.19;124903;1093;64364;-83
2021/07/25 03:19:50;;;;;;;18.80;17.00;;;;;;;18.65;82.29;98614.77;124931;1093;64210;-83
2021/07/25 03:22:17;;;;;;;20.13;18.23;;;;;;;18.69;81.92;98617.98;124929;1093;64370;-83
2021/07/25 03:24:44;;;;;;;19.63;17.83;;;;;;;18.70;81.65;98609.73;124888;1093;64301;-83
2021/07/25 03:27:11;;;;;;;21.50;19.20;;;;;;;18.71;81.84;98614.11;124867;1093;64273;-83
2021/07/25 03:29:38;;;;;;;19.83;17.77;;;;;;;18.72;81.54;98620.34;124883;1093;64272;-83
2021/07/25 03:32:06;;;;;;;19.17;16.77;;;;;;;18.70;81.28;98614.30;124884;1093;64291;-82
2021/07/25 03:34:33;;;;;;;18.95;17.10;;;;;;;18.70;81.33;98611.59;124870;1093;64244;-82
2021/07/25 03:37:02;;;;;;;20.20;17.30;;;;;;;18.71;81.59;98616.81;124915;1093;64752;-82
2021/07/25 03:39:31;;;;;;;19.47;16.77;;;;;;;18.73;81.13;98619.36;124897;1093;64284;-83
2021/07/25 03:41:58;;;;;;;19.30;17.30;;;;;;;18.74;81.24;98618.34;124910;1093;64284;-83
2021/07/25 03:44:25;;;;;;;18.60;16.33;;;;;;;18.77;81.53;98609.94;124869;1093;64306;-83
2021/07/25 03:46:53;;;;;;;18.47;16.53;;;;;;;18.79;81.65;98611.47;124854;1093;64268;-83
2021/07/25 03:49:21;;;;;;;19.00;17.13;;;;;;;18.84;81.35;98608.28;124939;1093;64402;-83
2021/07/25 03:51:48;;;;;;;20.93;18.77;;;;;;;18.84;81.54;98606.42;124821;1093;64331;-83
2021/07/25 03:54:16;;;;;;;22.37;19.17;;;;;;;18.89;81.14;98608.63;124912;1093;64282;-83
2021/07/25 03:56:43;;;;;;;21.77;19.63;;;;;;;18.94;81.07;98618.94;124888;1092;64268;-83
2021/07/25 03:59:10;;;;;;;20.13;18.07;;;;;;;18.95;81.14;98615.22;124916;1093;64290;-83
2021/07/25 04:01:37;;;;;;;19.53;17.63;;;;;;;19.00;81.03;98618.27;124922;1093;64343;-83
2021/07/25 04:04:04;;;;;;;19.60;17.60;;;;;;;19.04;80.97;98615.08;124913;1093;64271;-83
2021/07/25 04:06:32;;;;;;;19.70;17.47;;;;;;;19.07;80.64;98614.75;124886;1093;64306;-83
2021/07/25 04:09:00;;;;;;;18.50;16.70;;;;;;;19.10;80.63;98615.43;124945;1093;64297;-83
2021/07/25 04:11:27;;;;;;;17.63;15.80;;;;;;;19.15;80.83;98613.91;124926;1093;64415;-83
2021/07/25 04:13:54;;;;;;;16.77;15.07;;;;;;;19.24;80.50;98618.30;124904;1093;64868;-83
2021/07/25 04:16:21;;;;;;;18.13;15.87;;;;;;;19.29;80.17;98621.34;124907;1093;64271;-83
2021/07/25 04:18:48;;;;;;;17.43;15.63;;;;;;;19.37;79.90;98622.38;124940;1093;64290;-83
2021/07/25 04:21:16;;;;;;;19.40;16.37;;;;;;;19.44;79.38;98613.43;124875;1093;64288;-83
2021/07/25 04:23:43;;;;;;;17.53;15.67;;;;;;;19.49;79.07;98610.23;124886;1093;64264;-83
2021/07/25 04:26:11;;;;;;;16.77;15.00;;;;;;;19.54;78.83;98610.57;124869;1093;64392;-83
2021/07/25 04:28:38;;;;;;;16.10;14.50;;;;;;;19.58;78.67;98609.20;124867;1093;64217;-83
2021/07/25 04:31:06;;;;;;;16.40;14.50;;;;;;;19.63;78.44;98600.59;124921;1094;64202;-83
2021/07/25 04:33:34;;;;;;;18.30;15.40;;;;;;;19.71;78.02;98601.45;124906;1093;64303;-83
2021/07/25 04:36:11;;;;;;;16.80;15.10;;;;;;;19.83;77.94;98599.25;124869;1093;64495;-83
2021/07/25 04:38:39;;;;;;;17.77;15.10;;;;;;;20.89;76.46;98587.20;124884;1093;64284;-84
2021/07/25 04:41:10;;;;;;;17.65;15.65;;;;;;;21.61;74.31;98589.55;124900;1093;64287;-83
2021/07/25 04:43:39;;;;;;;17.03;15.43;;;;;;;22.23;72.88;98596.61;124874;1093;64245;-83
2021/07/25 04:46:10;;;;;;;17.13;15.43;;;;;;;22.83;71.53;98589.24;124871;1093;64267;-83
2021/07/25 04:48:59;;;;;;;17.40;15.60;;;;;;;23.36;69.86;98581.67;124855;1093;64398;-83
2021/07/25 04:51:27;;;;;;;;;;;;;;;23.85;67.85;98580.84;124923;1093;64273;-83
2021/07/25 04:53:58;;;;;;;15.70;14.30;;;;;;;24.23;67.43;98577.75;124857;1093;64348;-83
2021/07/25 04:56:26;;;;;;;16.00;14.30;;;;;;;24.59;66.33;98584.03;124859;1093;64268;-83
2021/07/25 04:59:03;;;;;;;15.27;13.97;;;;;;;24.95;65.49;98584.58;124892;1093;64249;-84
2021/07/25 05:01:36;;;;;;;15.03;13.73;;;;;;;25.36;64.39;98577.38;124825;1093;64309;-83
2021/07/25 05:04:06;;;;;;;14.13;12.90;;;;;;;25.71;63.18;98577.17;124955;1093;64319;-83
2021/07/25 05:06:34;;;;;;;13.70;12.50;;;;;;;25.98;62.58;98580.75;124926;1093;64273;-83
2021/07/25 05:09:01;;;;;;;14.50;13.30;;;;;;;26.20;61.02;98576.73;124885;1092;64306;-84
2021/07/25 05:11:37;;;;;;;14.20;12.90;;;;;;;26.47;60.30;98574.75;124859;1093;64750;-84
2021/07/25 05:14:09;;;;;;;12.93;11.63;;;;;;;26.69;59.26;98569.85;124795;1093;64484;-84
2021/07/25 05:16:50;;;;;;;13.83;12.53;;;;;;;26.88;58.76;98573.57;124862;1093;64415;-84
2021/07/25 05:19:28;;;;;;;13.33;12.13;;;;;;;27.12;57.96;98576.56;124914;1093;64277;-84
2021/07/25 05:22:08;;;;;;;13.90;11.97;;;;;;;27.41;57.18;98580.65;124889;1092;64293;-84
2021/07/25 05:24:43;;;;;;;12.80;11.77;;;;;;;27.54;56.45;98594.23;124863;1092;64338;-84
2021/07/25 05:27:20;;;;;;;13.10;12.00;;;;;;;27.78;56.04;98591.73;124917;1092;64264;-84
2021/07/25 05:29:48;;;;;;;11.90;11.03;;;;;;;28.03;55.35;98588.98;124913;1093;64634;-84
2021/07/25 05:32:16;;;;;;;12.50;11.20;;;;;;;28.08;54.45;98589.16;124871;1094;64284;-84
2021/07/25 05:34:43;;;;;;;12.57;11.47;;;;;;;28.07;54.42;98592.97;124867;1093;64274;-84
2021/07/25 05:37:11;;;;;;;11.67;10.67;;;;;;;28.17;53.94;98587.81;124879;1093;64287;-83
2021/07/25 05:39:38;;;;;;;11.90;10.90;;;;;;;28.27;53.11;98591.92;124828;1093;64370;-84
2021/07/25 05:42:05;;;;;;;12.07;10.90;;;;;;;28.41;53.15;98588.81;124883;1092;64332;-83
2021/07/25 05:44:32;;;;;;;11.73;10.63;;;;;;;28.48;51.70;98598.89;124889;1093;64287;-83
2021/07/25 05:46:59;;;;;;;11.50;10.40;;;;;;;28.23;52.85;98595.12;124894;1093;64268;-84
2021/07/25 05:49:27;;;;;;;11.53;10.53;;;;;;;28.24;52.64;98595.95;124889;1093;64248;-84
2021/07/25 05:51:54;;;;;;;11.10;10.10;;;;;;;27.95;52.57;98606.55;124839;1093;64313;-83
2021/07/25 05:54:21;;;;;;;10.87;9.87;;;;;;;27.94;51.57;98598.58;124892;1093;64194;-83
2021/07/25 05:56:48;;;;;;;10.60;9.63;;;;;;;28.20;52.00;98598.31;124867;1093;64280;-81
2021/07/25 05:59:16;;;;;;;11.27;10.27;;;;;;;28.36;51.94;98596.88;124899;1093;64207;-81
2021/07/25 06:01:44;;;;;;;11.00;9.83;;;;;;;28.67;51.56;98600.55;124848;1093;64210;-83
2021/07/25 06:04:11;;;;;;;10.57;9.57;;;;;;;29.04;49.88;98601.40;124841;1093;64263;-84
2021/07/25 06:06:39;;;;;;;11.87;10.60;;;;;;;28.64;50.66;98598.27;124853;1093;64281;-84
2021/07/25 06:09:07;;;;;;;10.03;9.10;;;;;;;28.37;50.85;98594.98;124846;1093;64216;-81
2021/07/25 06:11:35;;;;;;;10.90;9.90;;;;;;;28.23;50.84;98592.38;124859;1093;64245;-84
2021/07/25 06:14:03;;;;;;;11.20;10.10;;;;;;;28.55;50.84;98602.41;124890;1093;64267;-83
2021/07/25 06:16:30;;;;;;;10.53;9.63;;;;;;;29.12;49.12;98599.38;124910;1093;64288;-84
2021/07/25 06:18:58;;;;;;;10.57;9.53;;;;;;;29.27;49.10;98599.80;124875;1093;64339;-83
2021/07/25 06:21:26;;;;;;;10.80;9.80;;;;;;;28.99;49.06;98603.97;124901;1093;64264;-84
2021/07/25 06:23:55;;;;;;;11.03;10.03;;;;;;;28.72;49.66;98597.13;124908;1093;64605;-83
2021/07/25 06:26:23;;;;;;;10.60;9.60;;;;;;;28.56;50.04;98604.90;124884;1093;64188;-83
2021/07/25 06:28:51;;;;;;;10.35;9.25;;;;;;;28.32;49.72;98598.39;124903;1093;64334;-83
2021/07/25 06:31:18;;;;;;;9.90;9.07;;;;;;;28.08;49.96;98597.38;124875;1092;64410;-83
2021/07/25 06:33:46;;;;;;;10.17;9.17;;;;;;;27.93;49.98;98605.09;124877;1093;64287;-83
2021/07/25 06:36:13;;;;;;;10.40;9.23;;;;;;;27.91;50.34;98608.08;124822;1093;64262;-83
2021/07/25 06:38:42;;;;;;;10.33;9.47;;;;;;;28.11;50.33;98616.09;124861;1093;64264;-81
2021/07/25 06:41:09;;;;;;;11.40;10.50;;;;;;;28.43;50.22;98607.76;124890;1093;64312;-83
2021/07/25 06:43:37;;;;;;;11.97;9.63;;;;;;;28.64;49.37;98601.84;124958;1093;64357;-83
2021/07/25 06:46:04;;;;;;;10.60;9.60;;;;;;;29.21;49.46;98598.00;124959;1092;64284;-83
2021/07/25 06:48:32;;;;;;;10.63;9.63;;;;;;;29.68;48.37;98607.23;124901;1093;64612;-83
2021/07/25 06:51:01;;;;;;;11.17;10.17;;;;;;;29.59;48.10;98607.77;124876;1093;64312;-83
2021/07/25 06:53:31;;;;;;;11.23;10.23;;;;;;;29.51;47.66;98603.45;124839;1093;64306;-83
2021/07/25 06:56:03;;;;;;;10.60;9.70;;;;;;;29.34;47.91;98608.78;124969;1093;64274;-81
2021/07/25 06:58:31;;;;;;;12.53;9.97;;;;;;;29.60;47.59;98603.97;124965;1093;64287;-83
2021/07/25 07:00:59;;;;;;;10.17;9.27;;;;;;;30.02;46.99;98601.16;124971;1093;64295;-83
2021/07/25 07:03:27;;;;;;;10.67;9.57;;;;;;;30.30;46.47;98604.05;124965;1093;64268;-83
2021/07/25 07:05:54;;;;;;;9.73;8.83;;;;;;;30.40;45.74;98601.54;124912;1093;64293;-83
2021/07/25 07:08:23;;;;;;;9.93;9.00;;;;;;;30.59;45.10;98604.97;124983;1093;64451;-83
2021/07/25 07:10:50;;;;;;;9.95;8.95;;;;;;;30.53;44.46;98605.95;125000;1093;64278;-84
2021/07/25 07:13:19;;;;;;;10.43;9.10;;;;;;;30.43;45.10;98602.14;124913;1093;64287;-83
2021/07/25 07:15:48;;;;;;;12.13;9.67;;;;;;;30.37;44.89;98606.70;124877;1093;64284;-83
2021/07/25 07:18:16;;;;;;;10.13;9.23;;;;;;;30.08;44.09;98606.55;124916;1093;64280;-83
2021/07/25 07:20:44;;;;;;;9.50;8.65;;;;;;;29.93;44.79;98609.75;124968;1093;64273;-83
2021/07/25 07:23:14;;;;;;;13.53;9.90;;;;;;;29.85;45.07;98610.11;124902;1093;64284;-83
2021/07/25 07:25:46;;;;;;;9.90;9.10;;;;;;;29.71;44.54;98609.50;124981;1093;64268;-83
2021/07/25 07:28:14;;;;;;;10.77;9.67;;;;;;;29.63;45.01;98609.81;124889;1093;64281;-83
2021/07/25 07:30:42;;;;;;;10.83;9.87;;;;;;;29.56;45.21;98609.07;124863;1093;64280;-83
2021/07/25 07:33:18;;;;;;;10.27;9.33;;;;;;;29.59;45.59;98603.10;124896;1093;64332;-83
2021/07/25 07:35:46;;;;;;;10.30;9.50;;;;;;;29.50;45.78;98610.85;124885;1093;64327;-83
2021/07/25 07:38:14;;;;;;;9.80;8.90;;;;;;;29.49;45.18;98616.56;124888;1093;64361;-83
2021/07/25 07:40:43;;;;;;;10.83;9.93;;;;;;;29.53;45.16;98618.62;124890;1093;64287;-83
2021/07/25 07:43:11;;;;;;;;;;;;;;;29.45;45.04;98621.70;124902;1093;64188;-83
2021/07/25 07:45:41;;;;;;;10.77;9.87;;;;;;;29.42;45.31;98618.59;124838;1092;64339;-83
2021/07/25 07:48:09;;;;;;;11.00;9.90;;;;;;;29.38;45.40;98623.70;124889;1093;64264;-83
2021/07/25 07:50:37;;;;;;;10.40;9.50;;;;;;;29.35;45.56;98620.59;124864;1093;64268;-83
2021/07/25 07:53:04;;;;;;;11.53;10.50;;;;;;;29.39;45.42;98627.30;124873;1092;64281;-83
2021/07/25 07:55:31;;;;;;;10.77;9.53;;;;;;;29.37;45.33;98618.45;124849;1093;64785;-83
2021/07/25 07:57:58;;;;;;;10.93;9.90;;;;;;;29.50;45.13;98624.58;124908;1093;64335;-83
2021/07/25 08:00:26;;;;;;;11.30;10.30;;;;;;;29.53;45.62;98617.78;124877;1093;64280;-83
2021/07/25 08:02:53;;;;;;;11.47;10.37;;;;;;;29.68;45.39;98617.39;124884;1093;64322;-83
2021/07/25 08:05:20;;;;;;;11.30;10.30;;;;;;;29.82;45.41;98620.75;124849;1093;64267;-83
2021/07/25 08:07:48;;;;;;;12.17;11.17;;;;;;;29.86;45.64;98624.67;124855;1093;64367;-83
2021/07/25 08:10:16;;;;;;;10.83;9.93;;;;;;;29.95;45.75;98623.27;124887;1093;64635;-83
2021/07/25 08:12:43;;;;;;;11.23;10.23;;;;;;;29.92;45.38;98627.33;124916;1093;64281;-83
2021/07/25 08:15:12;;;;;;;12.10;10.90;;;;;;;29.81;45.29;98630.08;124837;1093;64272;-83
2021/07/25 08:17:39;;;;;;;11.33;10.43;;;;;;;29.67;45.22;98633.00;124945;1093;64319;-83
2021/07/25 08:20:07;;;;;;;11.40;10.40;;;;;;;29.62;45.45;98630.13;124917;1093;64356;-83
2021/07/25 08:22:35;;;;;;;12.17;11.07;;;;;;;29.63;46.09;98637.28;124859;1092;64354;-83
2021/07/25 08:25:03;;;;;;;11.43;10.30;;;;;;;29.71;46.21;98638.88;124843;1093;64300;-83
2021/07/25 08:27:31;;;;;;;11.20;10.18;;;;;;;29.79;45.77;98643.20;124948;1093;64376;-83
2021/07/25 08:29:58;;;;;;;11.10;10.00;;;;;;;29.80;45.58;98639.37;124902;1093;64226;-83
2021/07/25 08:32:25;;;;;;;11.13;10.13;;;;;;;29.77;45.67;98646.17;124901;1093;64415;-83
2021/07/25 08:34:53;;;;;;;11.07;10.03;;;;;;;29.71;45.79;98645.20;124851;1093;64450;-83
2021/07/25 08:37:20;;;;;;;10.90;10.00;;;;;;;29.63;46.18;98644.69;124883;1093;64291;-83
2021/07/25 08:39:47;;;;;;;11.53;10.43;;;;;;;29.48;45.94;98650.59;124833;1093;64207;-83
2021/07/25 08:42:17;;;;;;;11.40;10.27;;;;;;;29.37;46.75;98649.48;124889;1093;64290;-83
2021/07/25 08:44:44;;;;;;;11.80;10.80;;;;;;;29.28;46.69;98650.87;124859;1093;64403;-83
2021/07/25 08:47:26;;;;;;;11.60;10.55;;;;;;;29.11;46.77;98645.20;124856;1093;64319;-83
2021/07/25 08:50:09;;;;;;;11.80;10.80;;;;;;;28.84;47.11;98655.64;124863;1093;64376;-83
2021/07/25 08:52:41;;;;;;;12.50;11.30;;;;;;;28.80;47.43;98654.41;124877;1093;64859;-83
2021/07/25 08:55:11;;;;;;;11.00;10.00;;;;;;;28.59;47.17;98655.70;124875;1093;64399;-83
2021/07/25 08:57:41;;;;;;;12.07;11.07;;;;;;;28.50;48.27;98660.66;124935;1092;64402;-83
2021/07/25 09:00:12;;;;;;;10.70;9.75;;;;;;;28.59;49.18;98656.53;124967;1092;64395;-83
2021/07/25 09:02:40;;;;;;;11.07;10.17;;;;;;;28.65;49.21;98660.30;124913;1093;64360;-83
2021/07/25 09:05:10;;;;;;;11.43;10.53;;;;;;;28.64;48.19;98655.86;124861;1092;64265;-83
2021/07/25 09:07:40;;;;;;;12.77;11.20;;;;;;;28.56;48.36;98658.91;124926;1093;64351;-83
2021/07/25 09:10:22;;;;;;;11.47;10.47;;;;;;;28.66;48.69;98662.79;124988;1093;64306;-83
2021/07/25 09:12:51;;;;;;;11.63;10.57;;;;;;;28.71;48.29;98666.77;124915;1093;64303;-83
2021/07/25 09:15:29;;;;;;;12.13;11.13;;;;;;;28.77;48.27;98676.81;124905;1093;64313;-83
2021/07/25 09:17:57;;;;;;;12.10;10.93;;;;;;;28.78;48.43;98684.83;124920;1093;64386;-83
2021/07/25 09:20:27;;;;;;;12.17;10.97;;;;;;;28.72;49.19;98684.89;124924;1093;64280;-82
2021/07/25 09:23:05;;;;;;;11.50;10.30;;;;;;;28.53;49.26;98695.84;124869;1093;64264;-83
2021/07/25 09:25:35;;;;;;;10.53;9.70;;;;;;;28.29;48.59;98704.91;124965;1093;64267;-83
2021/07/25 09:28:02;;;;;;;11.00;10.07;;;;;;;27.98;47.84;98701.97;124927;1093;64340;-83
2021/07/25 09:30:30;;;;;;;11.03;9.80;;;;;;;27.80;47.84;98704.59;124971;1093;64238;-83
2021/07/25 09:32:58;;;;;;;11.10;10.00;;;;;;;27.63;47.94;98697.99;125181;1093;64268;-83
2021/07/25 09:35:29;;;;;;;11.90;9.90;;;;;;;27.39;47.60;98702.34;125250;1093;64265;-83
2021/07/25 09:38:10;;;;;;;11.00;10.20;;;;;;;27.08;47.76;98702.01;125225;1093;64669;-83
2021/07/25 09:40:38;;;;;;;10.73;9.97;;;;;;;26.91;48.21;98707.13;125260;1093;64191;-83
2021/07/25 09:43:13;;;;;;;11.27;10.27;;;;;;;26.80;48.38;98706.94;124955;1093;64304;-83
2021/07/25 09:45:50;;;;;;;11.73;10.60;;;;;;;26.72;48.79;98705.27;124827;1093;64271;-83
2021/07/25 09:48:18;;;;;;;10.77;9.87;;;;;;;26.63;49.09;98710.14;124838;1092;64265;-83
2021/07/25 09:50:47;;;;;;;11.53;10.43;;;;;;;26.54;49.01;98711.43;124865;1093;64268;-83
2021/07/25 09:53:15;;;;;;;12.67;10.17;;;;;;;26.50;49.52;98708.23;124887;1093;64265;-83
2021/07/25 09:55:43;;;;;;;11.63;10.43;;;;;;;26.54;49.65;98711.43;124897;1093;64284;-83
2021/07/25 09:58:11;;;;;;;10.90;10.00;;;;;;;26.55;49.66;98706.80;124922;1093;64297;-83
2021/07/25 10:00:40;;;;;;;11.97;10.77;;;;;;;26.53;49.22;98706.16;124833;1093;64294;-83
2021/07/25 10:03:24;;;;;;;11.23;10.23;;;;;;;26.57;49.78;98705.53;124923;1093;64204;-83
2021/07/25 10:05:52;;;;;;;11.53;10.43;;;;;;;26.67;49.49;98705.94;124873;1093;64268;-82
2021/07/25 10:08:21;;;;;;;10.57;9.67;;;;;;;26.77;49.30;98705.47;124916;1093;64297;-83
2021/07/25 10:10:49;;;;;;;;;;;;;;;26.86;49.31;98714.30;124968;1093;64280;-83
2021/07/25 10:13:19;;;;;;;11.10;10.10;;;;;;;26.96;49.36;98711.93;124841;1093;64376;-82
2021/07/25 10:16:06;;;;;;;;;;;;;;;26.97;49.16;98708.16;124975;1093;64213;-82
2021/07/25 10:18:35;;;;;;;11.73;10.63;;;;;;;27.03;49.39;98720.96;124886;1093;64241;-82
2021/07/25 10:21:03;;;;;;;10.70;9.70;;;;;;;27.05;49.75;98721.59;124896;1093;64313;-82
2021/07/25 10:23:30;;;;;;;11.13;10.23;;;;;;;27.05;49.52;98723.50;124886;1093;64268;-82
2021/07/25 10:26:03;;;;;;;11.10;10.30;;;;;;;27.17;49.64;98726.38;124831;1093;64291;-82
2021/07/25 10:28:32;;;;;;;10.63;9.70;;;;;;;27.31;49.90;98717.11;124868;1093;64241;-82
2021/07/25 10:31:00;;;;;;;10.90;9.90;;;;;;;27.51;49.57;98725.20;124872;1092;64370;-82
2021/07/25 10:33:28;;;;;;;11.43;10.30;;;;;;;27.63;49.72;98725.37;124866;1093;64271;-82
2021/07/25 10:35:57;;;;;;;12.50;11.33;;;;;;;27.80;49.95;98723.77;124902;1093;64276;-82
2021/07/25 10:38:24;;;;;;;12.07;11.17;;;;;;;27.90;49.22;98732.38;124860;1093;64309;-82
2021/07/25 10:40:54;;;;;;;11.07;10.17;;;;;;;28.00;49.31;98724.51;124886;1093;64393;-82
2021/07/25 10:43:25;;;;;;;12.40;11.27;;;;;;;28.24;49.47;98727.48;124933;1092;64283;-82
2021/07/25 10:46:14;;;;;;;11.87;10.73;;;;;;;28.35;48.83;98726.75;124866;1093;64315;-82
2021/07/25 10:49:00;;;;;;;;;;;;;;;28.52;49.17;98726.23;124910;1093;64229;-83
2021/07/25 10:51:27;;;;;;;11.70;10.60;;;;;;;28.76;49.08;98739.06;124866;1093;64348;-82
2021/07/25 10:54:23;;;;;;;11.35;10.45;;;;;;;28.92;48.46;98731.31;124856;1093;64360;-83
2021/07/25 10:57:06;;;;;;;11.80;10.37;;;;;;;28.91;47.38;98730.45;124898;1093;64278;-83
2021/07/25 10:59:52;;;;;;;11.40;10.40;;;;;;;28.89;47.49;98738.09;124913;1092;64249;-83
2021/07/25 11:02:23;;;;;;;11.90;10.90;;;;;;;28.84;47.03;98740.67;124835;1093;64220;-83
2021/07/25 11:04:53;;;;;;;10.80;9.80;;;;;;;28.73;46.48;98736.78;124846;1093;64220;-83
2021/07/25 11:07:22;;;;;;;15.80;9.30;;;;;;;28.41;46.00;98756.03;124874;1093;64379;-82
2021/07/25 11:09:55;;;;;;;10.57;9.27;;;;;;;28.31;45.63;98749.38;124886;1093;64217;-83
2021/07/25 11:12:25;;;;;;;9.60;8.73;;;;;;;28.13;45.29;98748.23;124936;1093;64621;-83
2021/07/25 11:14:55;;;;;;;8.13;7.60;;;;;;;27.89;45.39;98752.62;125053;1093;64267;-83
2021/07/25 11:17:44;;;;;;;9.13;8.30;;;;;;;27.65;45.28;98750.61;124912;1093;64288;-83
2021/07/25 11:20:34;;;;;;;11.63;8.98;;;;;;;27.27;45.86;98755.00;124898;1093;64364;-83
2021/07/25 11:23:02;;;;;;;10.10;9.30;;;;;;;26.93;47.07;98756.95;124854;1093;64285;-85